Time;durP1;ratioP1;P1;durP2;ratioP2;P2;SDS_P1;SDS_P2;PMS_P1;PMS_P2;Temp;Humidity;BMP_temperature;BMP_pressure;BME280_temperature;BME280_humidity;BME280_pressure;Samples;Min_cycle;Max_cycle;Signal;HPM_P1;HPM_P2
2022/09/13 00:00:51;;;;;;;9.15;2.28;;;;;;;;;;10381397;28;20044;-53
2022/09/13 00:05:52;;;;;;;8.73;1.52;;;;;;;;;;10394983;28;20616;-55
2022/09/13 00:10:52;;;;;;;9.45;2.33;;;;;;;;;;10377208;28;20316;-50
2022/09/13 00:15:53;;;;;;;8.93;2.15;;;;;;;;;;10388301;28;20113;-52
2022/09/13 00:21:08;;;;;;;3.85;1.42;;;;;;;;;;10379353;28;20029;-50
2022/09/13 00:26:13;;;;;;;10.02;1.80;;;;;;;;;;10369134;28;20052;-51
2022/09/13 00:31:14;;;;;;;9.00;1.60;;;;;;;;;;10398094;28;20030;-54
2022/09/13 00:36:15;;;;;;;7.25;1.88;;;;;;;;;;10395814;28;20034;-53
2022/09/13 00:41:19;;;;;;;5.10;1.73;;;;;;;;;;10398746;28;20260;-55
2022/09/13 00:46:48;;;;;;;6.32;1.70;;;;;;;;;;10402630;28;20068;-52
2022/09/13 00:52:03;;;;;;;9.05;1.60;;;;;;;;;;10394427;28;20058;-49
2022/09/13 00:57:04;;;;;;;4.88;1.90;;;;;;;;;;10397245;28;20033;-48
2022/09/13 01:02:05;;;;;;;3.83;1.92;;;;;;;;;;10385966;28;20562;-51
2022/09/13 01:07:10;;;;;;;5.93;1.63;;;;;;;;;;10409356;28;20473;-52
2022/09/13 01:12:38;;;;;;;6.28;1.58;;;;;;;;;;10410692;28;20025;-51
2022/09/13 01:17:39;;;;;;;5.35;1.80;;;;;;;;;;10389599;28;20088;-52
2022/09/13 01:23:10;;;;;;;4.40;1.60;;;;;;;;;;10392004;28;20255;-55
2022/09/13 01:28:34;;;;;;;6.75;1.63;;;;;;;;;;10391404;28;20114;-49
2022/09/13 01:33:41;;;;;;;6.15;1.40;;;;;;;;;;10386174;28;20029;-51
2022/09/13 01:39:00;;;;;;;4.97;1.50;;;;;;;;;;10390269;28;20409;-56
2022/09/13 01:44:38;;;;;;;3.55;1.23;;;;;;;;;;10397145;28;20040;-55
2022/09/13 01:49:55;;;;;;;4.32;1.30;;;;;;;;;;10386089;28;20042;-56
2022/09/13 01:55:33;;;;;;;4.77;1.43;;;;;;;;;;10378298;28;20029;-53
2022/09/13 02:00:55;;;;;;;2.28;1.20;;;;;;;;;;10396415;28;20458;-54
2022/09/13 02:06:07;;;;;;;8.13;1.50;;;;;;;;;;10387526;28;20093;-57
2022/09/13 02:11:17;;;;;;;3.15;1.30;;;;;;;;;;10397706;28;20029;-54
2022/09/13 02:16:38;;;;;;;5.80;1.30;;;;;;;;;;10379846;28;20029;-51
2022/09/13 02:21:43;;;;;;;4.75;1.38;;;;;;;;;;10392163;28;20493;-51
2022/09/13 02:26:48;;;;;;;5.25;1.38;;;;;;;;;;10394407;28;20081;-50
2022/09/13 02:32:02;;;;;;;3.55;1.45;;;;;;;;;;10388838;28;20060;-52
2022/09/13 02:37:05;;;;;;;2.17;1.17;;;;;;;;;;10376322;28;20044;-52
2022/09/13 02:42:12;;;;;;;3.03;1.20;;;;;;;;;;10373775;28;20034;-51
2022/09/13 02:47:32;;;;;;;5.18;1.20;;;;;;;;;;10395719;28;20041;-54
2022/09/13 02:52:58;;;;;;;2.10;1.30;;;;;;;;;;10386989;28;20072;-50
2022/09/13 02:58:36;;;;;;;2.78;1.33;;;;;;;;;;10386019;28;20049;-52
2022/09/13 03:03:37;;;;;;;2.75;1.35;;;;;;;;;;10393769;23;20043;-59
2022/09/13 03:08:38;;;;;;;4.97;1.40;;;;;;;;;;10408870;28;20036;-57
2022/09/13 03:14:04;;;;;;;1.30;1.05;;;;;;;;;;10402016;28;20119;-57
2022/09/13 03:19:14;;;;;;;4.90;1.20;;;;;;;;;;10368554;28;20533;-58
2022/09/13 03:24:39;;;;;;;2.08;1.30;;;;;;;;;;10368281;28;20034;-57
2022/09/13 03:30:00;;;;;;;2.13;1.20;;;;;;;;;;10367754;28;20026;-57
2022/09/13 03:35:31;;;;;;;11.45;1.27;;;;;;;;;;10368037;28;20113;-57
2022/09/13 03:40:32;;;;;;;3.10;1.30;;;;;;;;;;10369109;28;20106;-57
2022/09/13 03:45:39;;;;;;;3.10;1.10;;;;;;;;;;10367111;28;20481;-57
2022/09/13 03:50:41;;;;;;;3.75;1.60;;;;;;;;;;10366337;28;20151;-58
2022/09/13 03:55:42;;;;;;;5.05;1.38;;;;;;;;;;10365293;28;20038;-58
2022/09/13 04:00:43;;;;;;;2.08;1.27;;;;;;;;;;10364098;28;20029;-57
2022/09/13 04:05:45;;;;;;;5.82;1.33;;;;;;;;;;10367449;28;20141;-60
2022/09/13 04:10:50;;;;;;;17.70;1.80;;;;;;;;;;10366683;28;20026;-58
2022/09/13 04:15:51;;;;;;;3.28;1.30;;;;;;;;;;10366530;28;20037;-58
2022/09/13 04:20:57;;;;;;;2.55;1.20;;;;;;;;;;10365621;28;20026;-53
2022/09/13 04:26:05;;;;;;;4.13;1.40;;;;;;;;;;10365968;28;20492;-55
2022/09/13 04:31:05;;;;;;;2.38;0.90;;;;;;;;;;10365197;28;20515;-51
2022/09/13 04:36:06;;;;;;;4.40;1.13;;;;;;;;;;10366225;28;20176;-51
2022/09/13 04:41:07;;;;;;;5.60;1.73;;;;;;;;;;10365638;28;20021;-50
2022/09/13 04:46:07;;;;;;;6.30;1.30;;;;;;;;;;10365635;28;20486;-57
2022/09/13 04:51:08;;;;;;;2.70;1.27;;;;;;;;;;10364480;28;20049;-58
2022/09/13 04:56:09;;;;;;;4.57;1.30;;;;;;;;;;10364923;28;20042;-58
2022/09/13 05:01:10;;;;;;;12.98;1.77;;;;;;;;;;10362083;28;20038;-60
2022/09/13 05:06:16;;;;;;;5.18;1.17;;;;;;;;;;10364597;28;20513;-58
2022/09/13 05:11:17;;;;;;;8.73;1.30;;;;;;;;;;10351261;28;20500;-58
2022/09/13 05:16:18;;;;;;;7.45;1.30;;;;;;;;;;10362993;28;20040;-58
2022/09/13 05:21:20;;;;;;;7.60;1.30;;;;;;;;;;10354664;28;20486;-52
2022/09/13 05:26:22;;;;;;;9.40;1.75;;;;;;;;;;10364337;28;20515;-57
2022/09/13 05:31:30;;;;;;;4.82;1.27;;;;;;;;;;10357378;28;20026;-57
2022/09/13 05:36:31;;;;;;;6.40;1.70;;;;;;;;;;10359606;28;20560;-57
2022/09/13 05:41:32;;;;;;;4.25;1.80;;;;;;;;;;10352214;28;20077;-57
2022/09/13 05:46:33;;;;;;;3.10;1.48;;;;;;;;;;10364944;28;20048;-58
2022/09/13 05:51:35;;;;;;;2.38;1.42;;;;;;;;;;10370443;28;20041;-65
2022/09/13 05:56:35;;;;;;;8.40;1.90;;;;;;;;;;10368867;28;20470;-60
2022/09/13 06:01:36;;;;;;;5.32;1.85;;;;;;;;;;10367483;28;20038;-59
2022/09/13 06:06:45;;;;;;;6.35;1.75;;;;;;;;;;10369096;28;20520;-59
2022/09/13 06:11:46;;;;;;;8.57;2.25;;;;;;;;;;10362875;28;20116;-60
2022/09/13 06:16:46;;;;;;;13.65;2.38;;;;;;;;;;10370053;28;20038;-59
2022/09/13 06:21:47;;;;;;;9.20;2.63;;;;;;;;;;10370182;28;20049;-59
2022/09/13 06:26:47;;;;;;;11.70;3.28;;;;;;;;;;10367794;28;20034;-57
2022/09/13 06:31:48;;;;;;;5.53;2.10;;;;;;;;;;10370399;28;20037;-57
2022/09/13 06:36:49;;;;;;;7.72;2.50;;;;;;;;;;10370923;28;20062;-60
2022/09/13 06:41:49;;;;;;;13.77;2.45;;;;;;;;;;10370771;28;20394;-57
2022/09/13 06:46:50;;;;;;;20.00;3.33;;;;;;;;;;10369921;28;20030;-57
2022/09/13 06:51:50;;;;;;;15.65;3.10;;;;;;;;;;10367004;28;20149;-57
2022/09/13 06:56:51;;;;;;;11.70;3.03;;;;;;;;;;10367139;28;20018;-57
2022/09/13 07:01:51;;;;;;;14.25;3.17;;;;;;;;;;10368638;28;20026;-57
2022/09/13 07:06:53;;;;;;;16.45;3.03;;;;;;;;;;10367765;28;20045;-54
2022/09/13 07:11:55;;;;;;;20.17;3.05;;;;;;;;;;10369074;28;20034;-56
2022/09/13 07:16:56;;;;;;;22.77;3.05;;;;;;;;;;10369346;28;20223;-54
2022/09/13 07:21:57;;;;;;;15.02;3.03;;;;;;;;;;10369538;28;20227;-57
2022/09/13 07:26:57;;;;;;;19.00;3.05;;;;;;;;;;10369453;28;20037;-61
2022/09/13 07:31:58;;;;;;;20.20;3.28;;;;;;;;;;10368448;28;20537;-59
2022/09/13 07:36:59;;;;;;;9.90;2.70;;;;;;;;;;10368412;28;20022;-56
2022/09/13 07:41:59;;;;;;;8.25;2.55;;;;;;;;;;10368558;28;20389;-57
2022/09/13 07:47:00;;;;;;;13.25;2.30;;;;;;;;;;10368129;28;20389;-55
2022/09/13 07:52:01;;;;;;;7.35;2.20;;;;;;;;;;10368221;28;20355;-57
2022/09/13 07:57:01;;;;;;;8.60;2.20;;;;;;;;;;10368078;28;20113;-57
2022/09/13 08:02:02;;;;;;;5.47;1.80;;;;;;;;;;10367672;28;20219;-57
2022/09/13 08:07:02;;;;;;;6.20;1.63;;;;;;;;;;10366440;28;20046;-57
2022/09/13 08:12:03;;;;;;;7.55;1.75;;;;;;;;;;10367531;28;20029;-57
2022/09/13 08:17:05;;;;;;;9.55;1.92;;;;;;;;;;10366843;28;20797;-57
2022/09/13 08:22:06;;;;;;;8.40;1.85;;;;;;;;;;10367026;28;20033;-57
2022/09/13 08:27:06;;;;;;;6.40;1.75;;;;;;;;;;10366593;28;20037;-57
2022/09/13 08:32:08;;;;;;;7.15;1.80;;;;;;;;;;10367182;28;20054;-57
2022/09/13 08:37:09;;;;;;;6.75;1.83;;;;;;;;;;10366624;28;20033;-57
2022/09/13 08:42:49;;;;;;;3.67;1.77;;;;;;;;;;10366144;28;20080;-58
2022/09/13 08:47:57;;;;;;;3.38;1.65;;;;;;;;;;10359942;28;20030;-57
2022/09/13 08:53:30;;;;;;;4.10;1.70;;;;;;;;;;10363233;28;20022;-58
2022/09/13 08:58:48;;;;;;;2.72;1.52;;;;;;;;;;10365881;28;20044;-57
2022/09/13 09:04:12;;;;;;;;;;;;;;;;;;10365803;28;20164;-57
2022/09/13 09:09:19;;;;;;;3.13;1.40;;;;;;;;;;10380152;28;19918;-62
2022/09/13 09:14:37;;;;;;;3.33;1.50;;;;;;;;;;10365227;28;20026;-57
2022/09/13 09:20:04;;;;;;;7.38;1.67;;;;;;;;;;10369584;28;20501;-57
2022/09/13 09:25:08;;;;;;;6.60;1.50;;;;;;;;;;10372886;28;20069;-57
2022/09/13 09:30:13;;;;;;;8.32;1.75;;;;;;;;;;10374166;28;20033;-57
2022/09/13 09:35:35;;;;;;;5.60;1.52;;;;;;;;;;10373605;28;20033;-57
2022/09/13 09:40:37;;;;;;;3.45;1.38;;;;;;;;;;10372518;28;20474;-56
2022/09/13 09:45:40;;;;;;;10.32;1.98;;;;;;;;;;10372126;28;20092;-56
2022/09/13 09:50:50;;;;;;;3.08;1.30;;;;;;;;;;10373103;28;20113;-57
2022/09/13 09:56:04;;;;;;;3.38;1.63;;;;;;;;;;10372975;28;20137;-56
2022/09/13 10:01:23;;;;;;;2.25;1.50;;;;;;;;;;10371127;28;20022;-57
2022/09/13 10:06:27;;;;;;;5.55;1.27;;;;;;;;;;10371111;28;20192;-57
2022/09/13 10:11:56;;;;;;;2.20;1.48;;;;;;;;;;10370974;28;20034;-57
2022/09/13 10:17:15;;;;;;;4.65;1.60;;;;;;;;;;10372299;28;20087;-57
2022/09/13 10:22:16;;;;;;;4.00;1.38;;;;;;;;;;10372388;28;20022;-58
2022/09/13 10:27:33;;;;;;;3.33;1.60;;;;;;;;;;10371200;28;20030;-57
2022/09/13 10:32:34;;;;;;;3.47;1.23;;;;;;;;;;10370992;28;20026;-57
2022/09/13 10:37:35;;;;;;;2.75;1.38;;;;;;;;;;10371288;28;20034;-57
2022/09/13 10:42:36;;;;;;;3.85;1.85;;;;;;;;;;10371078;28;20355;-57
2022/09/13 10:47:47;;;;;;;5.57;1.48;;;;;;;;;;10366213;28;20026;-62
2022/09/13 10:52:56;;;;;;;7.55;1.58;;;;;;;;;;10363037;28;20045;-57
2022/09/13 10:58:18;;;;;;;1.83;1.20;;;;;;;;;;10361235;28;20053;-59
2022/09/13 11:03:42;;;;;;;4.35;1.40;;;;;;;;;;10366031;28;20378;-59
2022/09/13 11:09:36;;;;;;;6.55;1.50;;;;;;;;;;10366842;28;20508;-57
2022/09/13 11:15:19;;;;;;;5.25;1.77;;;;;;;;;;10366600;28;20054;-57
2022/09/13 11:20:57;;;;;;;4.07;1.20;;;;;;;;;;10361123;28;20064;-57
2022/09/13 11:26:28;;;;;;;6.93;1.38;;;;;;;;;;10366559;28;20033;-57
2022/09/13 11:32:25;;;;;;;4.10;1.38;;;;;;;;;;10365000;28;20073;-57
2022/09/13 11:38:04;;;;;;;1.45;1.08;;;;;;;;;;10361580;28;20022;-57
2022/09/13 11:43:40;;;;;;;3.60;1.33;;;;;;;;;;10366723;28;20045;-60
2022/09/13 11:48:52;;;;;;;2.97;1.38;;;;;;;;;;10341719;28;20038;-56
2022/09/13 11:54:13;;;;;;;4.47;1.63;;;;;;;;;;10365134;28;20056;-58
2022/09/13 11:59:39;;;;;;;1.75;1.45;;;;;;;;;;10358726;28;20075;-58
2022/09/13 12:05:20;;;;;;;2.83;1.20;;;;;;;;;;10353541;28;20057;-57
2022/09/13 12:10:31;;;;;;;2.20;1.40;;;;;;;;;;10348019;28;20045;-59
2022/09/13 12:15:41;;;;;;;1.77;1.17;;;;;;;;;;10367527;28;20128;-63
2022/09/13 12:21:08;;;;;;;2.53;1.40;;;;;;;;;;10375881;28;20018;-57
2022/09/13 12:26:20;;;;;;;5.50;1.80;;;;;;;;;;10379418;28;20254;-57
2022/09/13 12:31:28;;;;;;;3.55;1.20;;;;;;;;;;10367864;28;20377;-57
2022/09/13 12:36:42;;;;;;;5.35;1.30;;;;;;;;;;10366125;28;20061;-57
2022/09/13 12:42:43;;;;;;;2.33;1.40;;;;;;;;;;10365319;28;20022;-57
2022/09/13 12:47:53;;;;;;;2.17;1.38;;;;;;;;;;10352334;28;20413;-58
2022/09/13 12:53:02;;;;;;;3.63;1.52;;;;;;;;;;10361352;28;20042;-57
2022/09/13 12:58:38;;;;;;;2.85;1.30;;;;;;;;;;10367754;28;20401;-57
2022/09/13 13:03:55;;;;;;;4.22;1.33;;;;;;;;;;10368420;28;20484;-58
2022/09/13 13:08:59;;;;;;;4.00;1.90;;;;;;;;;;10367720;28;20069;-57
2022/09/13 13:14:08;;;;;;;9.27;1.73;;;;;;;;;;10353636;28;20076;-57
2022/09/13 13:19:32;;;;;;;3.53;1.60;;;;;;;;;;10373483;28;20044;-57
2022/09/13 13:24:37;;;;;;;4.80;1.60;;;;;;;;;;10371995;28;20441;-57
2022/09/13 13:29:38;;;;;;;2.92;1.60;;;;;;;;;;10358864;28;20101;-57
2022/09/13 13:34:45;;;;;;;2.75;1.52;;;;;;;;;;10373433;28;20041;-57
2022/09/13 13:40:08;;;;;;;6.30;2.08;;;;;;;;;;10357159;28;20445;-57
2022/09/13 13:45:27;;;;;;;2.15;1.30;;;;;;;;;;10361103;28;20040;-57
2022/09/13 13:50:27;;;;;;;1.98;1.70;;;;;;;;;;10371866;28;20415;-57
2022/09/13 13:56:03;;;;;;;3.05;1.55;;;;;;;;;;10371755;28;20048;-57
2022/09/13 14:01:05;;;;;;;2.15;1.25;;;;;;;;;;10370955;28;20032;-58
2022/09/13 14:06:23;;;;;;;2.35;1.50;;;;;;;;;;10355945;28;20060;-57
2022/09/13 14:11:39;;;;;;;3.70;1.67;;;;;;;;;;10370526;28;20109;-58
2022/09/13 14:17:18;;;;;;;5.25;1.50;;;;;;;;;;10369462;28;20045;-59
2022/09/13 14:22:29;;;;;;;5.20;1.85;;;;;;;;;;10370767;28;20448;-57
2022/09/13 14:27:36;;;;;;;9.07;1.85;;;;;;;;;;10370358;28;20061;-58
2022/09/13 14:32:43;;;;;;;3.17;1.90;;;;;;;;;;10370566;28;20025;-58
2022/09/13 14:37:43;;;;;;;5.55;1.88;;;;;;;;;;10370023;28;20050;-57
2022/09/13 14:42:47;;;;;;;3.72;1.90;;;;;;;;;;10370320;28;20026;-57
2022/09/13 14:48:15;;;;;;;11.85;2.20;;;;;;;;;;10369942;28;20033;-58
2022/09/13 14:53:23;;;;;;;;;;;;;;;;;;10369652;28;20664;-58
2022/09/13 14:58:33;;;;;;;5.38;2.05;;;;;;;;;;10369715;28;19933;-59
2022/09/13 15:03:34;;;;;;;4.43;1.80;;;;;;;;;;10368527;28;20065;-57
2022/09/13 15:08:34;;;;;;;3.05;1.80;;;;;;;;;;10368983;28;20169;-58
2022/09/13 15:13:36;;;;;;;3.30;1.77;;;;;;;;;;10369047;28;20022;-57
2022/09/13 15:18:37;;;;;;;2.80;1.77;;;;;;;;;;10369123;28;20467;-58
2022/09/13 15:23:41;;;;;;;6.93;1.83;;;;;;;;;;10368541;28;20033;-58
2022/09/13 15:28:42;;;;;;;4.53;1.73;;;;;;;;;;10368106;28;20034;-57
2022/09/13 15:33:42;;;;;;;5.43;1.77;;;;;;;;;;10368540;28;20022;-58
2022/09/13 15:39:12;;;;;;;4.90;2.40;;;;;;;;;;10368672;28;20204;-57
2022/09/13 15:44:12;;;;;;;7.63;1.70;;;;;;;;;;10366840;28;20033;-57
2022/09/13 15:49:19;;;;;;;2.40;1.90;;;;;;;;;;10367140;28;20389;-57
2022/09/13 15:54:23;;;;;;;6.72;1.63;;;;;;;;;;10367258;28;20045;-57
2022/09/13 15:59:23;;;;;;;3.08;1.80;;;;;;;;;;10367842;28;20542;-61
2022/09/13 16:04:24;;;;;;;2.65;1.70;;;;;;;;;;10366590;28;20042;-57
2022/09/13 16:09:26;;;;;;;6.72;1.70;;;;;;;;;;10366847;28;20465;-57
2022/09/13 16:14:26;;;;;;;7.40;1.70;;;;;;;;;;10366049;28;20037;-59
2022/09/13 16:19:27;;;;;;;6.63;1.63;;;;;;;;;;10366390;28;20033;-59
2022/09/13 16:24:27;;;;;;;3.28;1.70;;;;;;;;;;10365488;28;20034;-59
2022/09/13 16:29:28;;;;;;;4.00;1.40;;;;;;;;;;10366282;28;20026;-59
2022/09/13 16:34:29;;;;;;;5.00;1.23;;;;;;;;;;10361802;28;20041;-57
2022/09/13 16:39:29;;;;;;;4.85;1.60;;;;;;;;;;10366322;28;20025;-57
2022/09/13 16:44:30;;;;;;;3.38;1.60;;;;;;;;;;10370520;28;20053;-58
2022/09/13 16:49:30;;;;;;;4.07;1.40;;;;;;;;;;10355234;28;20501;-59
2022/09/13 16:54:33;;;;;;;1.77;1.25;;;;;;;;;;10364131;28;20025;-57
2022/09/13 16:59:34;;;;;;;5.50;1.65;;;;;;;;;;10364193;28;20030;-59
2022/09/13 17:04:35;;;;;;;5.88;1.33;;;;;;;;;;10365730;28;20037;-57
2022/09/13 17:09:36;;;;;;;3.65;1.30;;;;;;;;;;10365537;28;20386;-60
2022/09/13 17:14:38;;;;;;;4.65;1.20;;;;;;;;;;10365748;28;20466;-58
2022/09/13 17:19:38;;;;;;;4.63;1.65;;;;;;;;;;10361857;28;20056;-59
2022/09/13 17:24:39;;;;;;;7.72;1.60;;;;;;;;;;10354357;28;20041;-59
2022/09/13 17:29:40;;;;;;;4.40;1.40;;;;;;;;;;10365492;28;20057;-60
2022/09/13 17:34:40;;;;;;;2.65;1.10;;;;;;;;;;10365087;28;20045;-60
2022/09/13 17:39:41;;;;;;;7.82;1.10;;;;;;;;;;10366980;28;20394;-60
2022/09/13 17:44:42;;;;;;;2.92;0.90;;;;;;;;;;10362614;28;20038;-59
2022/09/13 17:49:42;;;;;;;2.17;1.20;;;;;;;;;;10368233;28;20034;-59
2022/09/13 17:54:43;;;;;;;5.22;1.40;;;;;;;;;;10374360;28;20389;-59
2022/09/13 17:59:46;;;;;;;8.63;1.25;;;;;;;;;;10371805;28;20520;-60
2022/09/13 18:04:49;;;;;;;1.92;1.13;;;;;;;;;;10365119;28;20129;-61
2022/09/13 18:09:50;;;;;;;8.88;1.60;;;;;;;;;;10369242;28;20069;-60
2022/09/13 18:14:51;;;;;;;3.70;1.77;;;;;;;;;;10365798;28;20030;-60
2022/09/13 18:19:52;;;;;;;7.15;1.70;;;;;;;;;;10367527;28;20119;-61
2022/09/13 18:24:52;;;;;;;7.50;2.00;;;;;;;;;;10362891;28;20176;-59
2022/09/13 18:29:53;;;;;;;13.38;2.50;;;;;;;;;;10366335;28;20028;-60
2022/09/13 18:34:53;;;;;;;5.95;2.33;;;;;;;;;;10366863;28;20034;-60
2022/09/13 18:39:54;;;;;;;7.85;2.40;;;;;;;;;;10369797;28;20041;-60
2022/09/13 18:44:55;;;;;;;8.95;2.58;;;;;;;;;;10367712;28;20105;-60
2022/09/13 18:49:55;;;;;;;2.95;2.00;;;;;;;;;;10366201;28;20045;-60
2022/09/13 18:54:56;;;;;;;5.47;2.05;;;;;;;;;;10367929;28;20042;-60
2022/09/13 18:59:58;;;;;;;3.28;1.90;;;;;;;;;;10365727;28;20029;-60
2022/09/13 19:04:58;;;;;;;8.15;2.10;;;;;;;;;;10365571;28;20486;-59
2022/09/13 19:09:59;;;;;;;1.67;1.50;;;;;;;;;;10368913;28;20033;-60
2022/09/13 19:14:59;;;;;;;3.90;1.63;;;;;;;;;;10365082;28;20026;-62
2022/09/13 19:20:01;;;;;;;5.15;1.92;;;;;;;;;;10366112;28;20080;-62
2022/09/13 19:25:01;;;;;;;4.68;1.63;;;;;;;;;;10354624;28;20026;-62
2022/09/13 19:30:03;;;;;;;4.72;2.00;;;;;;;;;;10368080;28;20041;-62
2022/09/13 19:35:04;;;;;;;4.45;1.63;;;;;;;;;;10368588;28;20112;-62
2022/09/13 19:40:05;;;;;;;2.45;1.60;;;;;;;;;;10368182;28;20022;-62
2022/09/13 19:45:06;;;;;;;3.17;1.90;;;;;;;;;;10355555;28;20045;-62
2022/09/13 19:50:07;;;;;;;6.53;2.03;;;;;;;;;;10369215;28;20037;-62
2022/09/13 19:55:08;;;;;;;2.45;1.30;;;;;;;;;;10354079;28;20038;-62
2022/09/13 20:00:10;;;;;;;4.65;1.70;;;;;;;;;;10363701;28;20099;-62
2022/09/13 20:05:10;;;;;;;2.35;1.40;;;;;;;;;;10340709;28;20069;-62
2022/09/13 20:10:11;;;;;;;5.32;1.85;;;;;;;;;;10366560;28;20026;-62
2022/09/13 20:15:11;;;;;;;3.25;1.70;;;;;;;;;;10340307;28;20085;-62
2022/09/13 20:20:12;;;;;;;3.47;1.38;;;;;;;;;;10358036;28;20018;-62
2022/09/13 20:25:13;;;;;;;4.85;1.63;;;;;;;;;;10345863;28;20053;-62
2022/09/13 20:30:14;;;;;;;1.77;1.33;;;;;;;;;;10352520;28;20018;-62
2022/09/13 20:35:15;;;;;;;2.55;1.48;;;;;;;;;;10366360;28;20125;-62
2022/09/13 20:40:16;;;;;;;1.95;1.48;;;;;;;;;;10350254;28;20033;-62
2022/09/13 20:45:16;;;;;;;3.70;1.63;;;;;;;;;;10352683;28;20034;-62
2022/09/13 20:50:19;;;;;;;1.88;1.45;;;;;;;;;;10352367;28;20066;-62
2022/09/13 20:55:19;;;;;;;2.22;1.45;;;;;;;;;;10350602;28;20088;-62
2022/09/13 21:00:20;;;;;;;2.17;1.20;;;;;;;;;;10362099;28;20466;-62
2022/09/13 21:05:20;;;;;;;1.92;1.23;;;;;;;;;;10355385;28;20489;-62
2022/09/13 21:10:23;;;;;;;2.72;1.63;;;;;;;;;;10364886;28;20470;-62
2022/09/13 21:15:24;;;;;;;2.70;1.70;;;;;;;;;;10359115;28;20073;-62
2022/09/13 21:20:24;;;;;;;2.92;1.60;;;;;;;;;;10378389;28;20058;-62
2022/09/13 21:25:25;;;;;;;2.45;1.40;;;;;;;;;;10378355;28;20026;-62
2022/09/13 21:30:26;;;;;;;2.78;1.50;;;;;;;;;;10361380;28;20034;-62
2022/09/13 21:35:27;;;;;;;2.22;1.30;;;;;;;;;;10356819;28;20032;-62
2022/09/13 21:40:28;;;;;;;1.95;1.50;;;;;;;;;;10367656;28;20030;-64
2022/09/13 21:45:28;;;;;;;2.90;1.70;;;;;;;;;;10357896;28;20386;-62
2022/09/13 21:50:39;;;;;;;4.63;1.67;;;;;;;;;;10366924;28;20523;-65
2022/09/13 21:55:40;;;;;;;8.65;1.63;;;;;;;;;;10366677;28;20033;-64
2022/09/13 22:00:41;;;;;;;3.00;1.58;;;;;;;;;;10368935;28;20029;-61
2022/09/13 22:05:41;;;;;;;5.10;1.67;;;;;;;;;;10363096;28;20406;-63
2022/09/13 22:10:42;;;;;;;3.78;1.40;;;;;;;;;;10371966;28;20030;-63
2022/09/13 22:15:43;;;;;;;5.78;2.03;;;;;;;;;;10370216;28;20034;-62
2022/09/13 22:20:43;;;;;;;3.53;2.08;;;;;;;;;;10364209;28;20093;-63
2022/09/13 22:25:44;;;;;;;5.57;1.55;;;;;;;;;;10363973;28;20040;-61
2022/09/13 22:30:44;;;;;;;9.88;1.58;;;;;;;;;;10366060;28;20029;-64
2022/09/13 22:35:45;;;;;;;14.23;1.85;;;;;;;;;;10368705;28;20026;-67
2022/09/13 22:40:54;;;;;;;11.23;2.22;;;;;;;;;;10367903;28;20045;-65
2022/09/13 22:46:07;;;;;;;8.80;1.90;;;;;;;;;;10367284;28;20041;-62
2022/09/13 22:51:10;;;;;;;8.68;2.15;;;;;;;;;;10361628;28;20022;-59
2022/09/13 22:56:21;;;;;;;9.55;2.17;;;;;;;;;;10366225;28;20394;-64
2022/09/13 23:01:23;;;;;;;9.75;1.60;;;;;;;;;;10363877;28;20049;-62
2022/09/13 23:06:25;;;;;;;6.75;2.10;;;;;;;;;;10360002;28;20494;-63
2022/09/13 23:11:32;;;;;;;12.13;1.92;;;;;;;;;;10368119;28;20025;-63
2022/09/13 23:16:49;;;;;;;8.30;1.63;;;;;;;;;;10367685;28;20049;-63
2022/09/13 23:21:51;;;;;;;11.98;1.98;;;;;;;;;;10368010;28;20105;-62
2022/09/13 23:26:54;;;;;;;14.02;2.00;;;;;;;;;;10364935;28;20042;-61
2022/09/13 23:31:55;;;;;;;4.13;1.70;;;;;;;;;;10367953;28;20096;-61
2022/09/13 23:36:55;;;;;;;8.95;1.60;;;;;;;;;;10364797;28;20021;-64
2022/09/13 23:41:56;;;;;;;4.45;1.63;;;;;;;;;;10363683;28;20433;-62
2022/09/13 23:46:57;;;;;;;9.95;2.15;;;;;;;;;;10355181;28;20041;-62
2022/09/13 23:51:58;;;;;;;9.95;2.20;;;;;;;;;;10368194;28;20623;-62
2022/09/13 23:56:58;;;;;;;6.80;1.90;;;;;;;;;;10362666;28;20037;-63
